Observations for LORIENT LANN BIHOUE, France (LFRH)

LFRH 221300Z AUTO 28009KT 9999 FEW028/// SCT042/// BKN050/// ///CB 08/04 Q1007 TEMPO SHRA   
LFRH 221230Z AUTO 29007KT 9999 FEW026 SCT031 BKN045 08/03 Q1008 TEMPO SHRA SCT020TCU BKN030 
LFRH 221200Z AUTO 29007KT 260V330 CAVOK 08/04 Q1009 TEMPO SHRA SCT020TCU BKN030 
LFRH 221130Z AUTO 27007KT CAVOK 08/04 Q1009 TEMPO SHRA SCT020TCU BKN030 
LFRH 221100Z AUTO 29007KT CAVOK 08/04 Q1009 TEMPO 4000 -SHRA BKN025TCU  
LFRH 221030Z AUTO 30008KT CAVOK 08/03 Q1010 TEMPO 4000 -SHRA BKN025TCU  
LFRH 221000Z AUTO 30007KT CAVOK 07/03 Q1010 TEMPO 4000 -SHRA BKN025TCU  
LFRH 220930Z AUTO 28007KT CAVOK 05/02 Q1010 TEMPO 4000 -SHRA BKN025TCU  
LFRH 220900Z AUTO 30005KT CAVOK 04/02 Q1010 TEMPO 4000 -SHRA BKN025TCU  
LFRH 220830Z AUTO 29005KT CAVOK 03/02 Q1010 TEMPO 4000 -SHRA BKN025TCU  
LFRH 220800Z AUTO 31006KT 9999 FEW019 SCT038 04/02 Q1010 NOSIG  
LFRH 220730Z AUTO 29007KT CAVOK 04/02 Q1010 NOSIG   
LFRH 220700Z AUTO 30004KT CAVOK 04/02 Q1010 NOSIG   
LFRH 220630Z AUTO 31006KT CAVOK 04/02 Q1010 NOSIG   
LFRH 220600Z AUTO 30005KT CAVOK 04/03 Q1010 NOSIG   
LFRH 220530Z AUTO 30004KT CAVOK 05/03 Q1010 NOSIG   
LFRH 220500Z AUTO 33005KT 300V360 9999 FEW032 BKN160 OVC220 06/04 Q1010 NOSIG   
LFRH 220430Z AUTO 34007KT 9999 FEW029 BKN062 OVC072 06/04 Q1010 NOSIG   
LFRH 220400Z AUTO 34008KT 310V010 9999 FEW040 BKN064 OVC130 06/04 Q1010 NOSIG   
LFRH 220330Z AUTO 33013KT 290V360 9999 BKN014/// BKN032/// BKN086/// ///TCU 07/05 Q1010 BECMG SCT040
LFRH 220300Z AUTO 23015KT 9999 -RA SCT011/// BKN021/// BKN030/// ///CB 08/07 Q1010 TEMPO 3000 RA BECMG 30005KT SCT040   
LFRH 220230Z AUTO 24016KT 6000 RA BKN013/// BKN018/// BKN030/// ///CB 08/07 Q1011 TEMPO 3000 RA BECMG 30005KT SCT040
LFRH 220200Z AUTO 24014KT 9999 -RA SCT012/// BKN022/// BKN031/// ///CB 08/07 Q1011 TEMPO 25020G30KT 3000 RA BKN008 OVC012CB 
LFRH 220130Z AUTO 26018KT 9999 -RA SCT014/// BKN020/// BKN032/// ///TCU 08/07 Q1012 TEMPO 25020G30KT 3000 RA BKN008 OVC012CB
LFRH 220100Z AUTO 24013KT 9999 -RA SCT016/// BKN021/// BKN054/// ///TCU 09/07 Q1013 TEMPO 25020G30KT 3000 RA BKN008 OVC012CB
LFRH 220030Z AUTO 23010KT 9999 FEW013/// SCT058/// BKN070/// ///TCU 08/07 Q1014 TEMPO 25020G30KT 3000 RA BKN008 OVC012CB
LFRH 220000Z AUTO 23013KT 9999 -RA FEW023/// SCT031/// BKN038/// ///TCU 08/06 Q1015 TEMPO 25020G30KT 3000 RA BKN008 OVC012CB
LFRH 212330Z AUTO 23015KT 9999 FEW015 SCT023 BKN034 08/06 Q1015 TEMPO 25020G30KT 3000 RA BKN008 OVC012CB
LFRH 212300Z AUTO 24012KT 9999 FEW017/// SCT031/// BKN038/// ///TCU 09/05 Q1016 TEMPO 25020G30KT 3000 RA BKN012 OVC020  
LFRH 212230Z AUTO 21013KT 9999 -RA SCT018/// SCT031/// BKN042/// ///CB 08/06 Q1017 TEMPO 25020G30KT 3000 RA BKN012 OVC020   
LFRH 212200Z AUTO 22012KT 9999 BKN020/// BKN026/// BKN032/// ///TCU 08/05 Q1017 BECMG 4000 -RADZ BKN012 OVC020  
LFRH 212130Z AUTO 21013KT 9999 SCT023/// BKN034/// BKN043/// ///TCU 08/04 Q1018 BECMG 4000 -RADZ BKN012 OVC020  
LFRH 212100Z AUTO 21011KT 9999 BKN027/// BKN040/// OVC058/// ///TCU 08/03 Q1019 BECMG 4000 -RADZ BKN012 OVC020  
LFRH 212030Z AUTO 21007KT 9999 BKN030 OVC052 07/03 Q1019 BECMG 4000 -RADZ BKN012 OVC020 
LFRH 212000Z AUTO 21008KT 9999 FEW030 SCT054 BKN170 06/02 Q1019 BECMG 4000 -RADZ BKN012 OVC020  
LFRH 211930Z AUTO 21006KT 9999 FEW024 BKN210 OVC230 05/02 Q1020 BECMG 4000 -RADZ BKN012 OVC020  
LFRH 211900Z AUTO 22006KT 9999 SCT025 SCT056 BKN200 06/03 Q1021 BECMG 4000 -RADZ BKN012 OVC020  
LFRH 211830Z AUTO 21006KT 9999 BKN024 BKN031 BKN056 05/02 Q1021 BECMG 4000 -RADZ BKN012 OVC020  
LFRH 211800Z AUTO 23005KT 9999 BKN024 BKN056 OVC220 06/02 Q1022 NOSIG   
LFRH 211730Z AUTO 22004KT 9999 BKN023 BKN220 OVC240 05/02 Q1022 NOSIG   
LFRH 211700Z AUTO 24004KT 9999 BKN023 BKN210 05/02 Q1022 NOSIG  
LFRH 211630Z AUTO VRB02KT 9999 SCT022 BKN049 06/02 Q1022 NOSIG  
LFRH 211600Z AUTO 23005KT 9999 OVC047 06/02 Q1023 NOSIG 
LFRH 211530Z AUTO 25005KT 9999 FEW023 OVC047 07/02 Q1023 NOSIG  
LFRH 211500Z AUTO 24006KT 9999 OVC047 07/02 Q1023 NOSIG 
LFRH 211430Z AUTO 26005KT 210V290 9999 BKN046 08/02 Q1023 NOSIG 
LFRH 211400Z AUTO 24005KT 160V280 CAVOK 08/01 Q1024 NOSIG   
LFRH 211330Z AUTO 23004KT 170V280 CAVOK 08/02 Q1024 NOSIG   
LFRH 211300Z AUTO VRB02KT CAVOK 08/02 Q1024 NOSIG   
LFRH 211230Z AUTO VRB03KT CAVOK 08/01 Q1024 NOSIG